sensor_id;sensor_type;location;lat;lon;timestamp;P1;durP1;ratioP1;P2;durP2;ratioP2
54983;SDS011;40884;53.562;9.940;2022-12-10T00:00:43;51.53;;;27.77;;
54983;SDS011;40884;53.562;9.940;2022-12-10T00:01:43;47.30;;;26.20;;
54983;SDS011;40884;53.562;9.940;2022-12-10T00:02:44;47.87;;;28.20;;
54983;SDS011;40884;53.562;9.940;2022-12-10T00:03:44;56.37;;;34.73;;
54983;SDS011;40884;53.562;9.940;2022-12-10T00:04:44;54.70;;;32.57;;
54983;SDS011;40884;53.562;9.940;2022-12-10T00:05:44;50.53;;;29.67;;
54983;SDS011;40884;53.562;9.940;2022-12-10T00:06:45;48.40;;;27.83;;
54983;SDS011;40884;53.562;9.940;2022-12-10T00:07:45;51.93;;;28.57;;
54983;SDS011;40884;53.562;9.940;2022-12-10T00:08:45;49.97;;;25.77;;
54983;SDS011;40884;53.562;9.940;2022-12-10T00:09:45;45.20;;;26.13;;
54983;SDS011;40884;53.562;9.940;2022-12-10T00:10:45;46.37;;;26.70;;
54983;SDS011;40884;53.562;9.940;2022-12-10T00:11:46;45.60;;;24.93;;
54983;SDS011;40884;53.562;9.940;2022-12-10T00:12:46;49.67;;;25.67;;
54983;SDS011;40884;53.562;9.940;2022-12-10T00:13:47;44.87;;;26.37;;
54983;SDS011;40884;53.562;9.940;2022-12-10T00:14:47;48.00;;;25.63;;
54983;SDS011;40884;53.562;9.940;2022-12-10T00:15:47;44.20;;;24.60;;
54983;SDS011;40884;53.562;9.940;2022-12-10T00:16:47;44.83;;;25.40;;
54983;SDS011;40884;53.562;9.940;2022-12-10T00:17:47;42.37;;;24.60;;
54983;SDS011;40884;53.562;9.940;2022-12-10T00:18:47;43.00;;;24.90;;
54983;SDS011;40884;53.562;9.940;2022-12-10T00:19:48;44.63;;;25.53;;
54983;SDS011;40884;53.562;9.940;2022-12-10T00:20:48;38.33;;;22.30;;
54983;SDS011;40884;53.562;9.940;2022-12-10T00:21:48;42.40;;;25.73;;
54983;SDS011;40884;53.562;9.940;2022-12-10T00:22:48;43.20;;;25.00;;
54983;SDS011;40884;53.562;9.940;2022-12-10T00:23:48;42.53;;;25.33;;
54983;SDS011;40884;53.562;9.940;2022-12-10T00:24:49;44.90;;;25.20;;
54983;SDS011;40884;53.562;9.940;2022-12-10T00:25:49;43.77;;;23.47;;
54983;SDS011;40884;53.562;9.940;2022-12-10T00:26:49;45.70;;;25.50;;
54983;SDS011;40884;53.562;9.940;2022-12-10T00:27:49;42.37;;;25.07;;
54983;SDS011;40884;53.562;9.940;2022-12-10T00:28:50;44.83;;;24.47;;
54983;SDS011;40884;53.562;9.940;2022-12-10T00:29:50;42.33;;;24.97;;
54983;SDS011;40884;53.562;9.940;2022-12-10T00:30:50;41.27;;;25.30;;
54983;SDS011;40884;53.562;9.940;2022-12-10T00:31:50;41.97;;;24.33;;
54983;SDS011;40884;53.562;9.940;2022-12-10T00:32:51;48.07;;;25.40;;
54983;SDS011;40884;53.562;9.940;2022-12-10T00:33:52;44.63;;;23.43;;
54983;SDS011;40884;53.562;9.940;2022-12-10T00:34:52;41.17;;;23.45;;
54983;SDS011;40884;53.562;9.940;2022-12-10T00:35:53;42.50;;;22.97;;
54983;SDS011;40884;53.562;9.940;2022-12-10T00:36:53;39.87;;;23.90;;
54983;SDS011;40884;53.562;9.940;2022-12-10T00:37:53;43.17;;;23.93;;
54983;SDS011;40884;53.562;9.940;2022-12-10T00:38:53;40.20;;;22.33;;
54983;SDS011;40884;53.562;9.940;2022-12-10T00:39:53;42.40;;;23.50;;
54983;SDS011;40884;53.562;9.940;2022-12-10T00:40:53;40.87;;;23.77;;
54983;SDS011;40884;53.562;9.940;2022-12-10T00:41:54;38.47;;;23.17;;
54983;SDS011;40884;53.562;9.940;2022-12-10T00:42:54;41.73;;;24.10;;
54983;SDS011;40884;53.562;9.940;2022-12-10T00:43:54;42.63;;;24.10;;
54983;SDS011;40884;53.562;9.940;2022-12-10T00:44:54;40.07;;;23.00;;
54983;SDS011;40884;53.562;9.940;2022-12-10T00:45:54;38.37;;;23.50;;
54983;SDS011;40884;53.562;9.940;2022-12-10T00:46:54;41.23;;;23.30;;
54983;SDS011;40884;53.562;9.940;2022-12-10T00:47:54;40.60;;;22.73;;
54983;SDS011;40884;53.562;9.940;2022-12-10T00:48:55;39.00;;;22.27;;
54983;SDS011;40884;53.562;9.940;2022-12-10T00:49:55;39.33;;;23.07;;
54983;SDS011;40884;53.562;9.940;2022-12-10T00:50:58;40.37;;;23.30;;
54983;SDS011;40884;53.562;9.940;2022-12-10T00:51:59;40.15;;;23.02;;
54983;SDS011;40884;53.562;9.940;2022-12-10T00:52:59;38.83;;;22.27;;
54983;SDS011;40884;53.562;9.940;2022-12-10T00:53:59;38.60;;;22.90;;
54983;SDS011;40884;53.562;9.940;2022-12-10T00:54:59;39.23;;;22.23;;
54983;SDS011;40884;53.562;9.940;2022-12-10T00:56:00;40.27;;;22.43;;
54983;SDS011;40884;53.562;9.940;2022-12-10T00:57:00;39.00;;;22.07;;
54983;SDS011;40884;53.562;9.940;2022-12-10T00:58:00;36.97;;;22.93;;
54983;SDS011;40884;53.562;9.940;2022-12-10T00:59:00;39.57;;;22.73;;
54983;SDS011;40884;53.562;9.940;2022-12-10T01:00:01;37.57;;;22.60;;
54983;SDS011;40884;53.562;9.940;2022-12-10T01:01:08;37.03;;;21.27;;
54983;SDS011;40884;53.562;9.940;2022-12-10T01:02:08;41.33;;;22.08;;
54983;SDS011;40884;53.562;9.940;2022-12-10T01:03:09;36.13;;;22.43;;
54983;SDS011;40884;53.562;9.940;2022-12-10T01:04:13;36.07;;;22.23;;
54983;SDS011;40884;53.562;9.940;2022-12-10T01:05:14;37.13;;;21.95;;
54983;SDS011;40884;53.562;9.940;2022-12-10T01:06:18;39.83;;;22.00;;
54983;SDS011;40884;53.562;9.940;2022-12-10T01:07:19;37.13;;;22.65;;
54983;SDS011;40884;53.562;9.940;2022-12-10T01:08:19;39.43;;;22.47;;
54983;SDS011;40884;53.562;9.940;2022-12-10T01:09:20;37.40;;;21.30;;
54983;SDS011;40884;53.562;9.940;2022-12-10T01:10:21;38.55;;;23.10;;
54983;SDS011;40884;53.562;9.940;2022-12-10T01:11:21;34.33;;;20.53;;
54983;SDS011;40884;53.562;9.940;2022-12-10T01:12:22;34.42;;;21.02;;
54983;SDS011;40884;53.562;9.940;2022-12-10T01:13:22;34.63;;;20.57;;
54983;SDS011;40884;53.562;9.940;2022-12-10T01:14:23;32.37;;;20.50;;
54983;SDS011;40884;53.562;9.940;2022-12-10T01:15:23;34.55;;;20.73;;
54983;SDS011;40884;53.562;9.940;2022-12-10T01:16:24;33.87;;;20.87;;
54983;SDS011;40884;53.562;9.940;2022-12-10T01:17:25;35.37;;;21.13;;
54983;SDS011;40884;53.562;9.940;2022-12-10T01:18:25;36.20;;;21.57;;
54983;SDS011;40884;53.562;9.940;2022-12-10T01:19:25;33.53;;;20.17;;
54983;SDS011;40884;53.562;9.940;2022-12-10T01:20:25;32.17;;;19.30;;
54983;SDS011;40884;53.562;9.940;2022-12-10T01:21:26;34.17;;;19.87;;
54983;SDS011;40884;53.562;9.940;2022-12-10T01:22:27;33.17;;;20.23;;
54983;SDS011;40884;53.562;9.940;2022-12-10T01:23:27;31.67;;;19.20;;
54983;SDS011;40884;53.562;9.940;2022-12-10T01:24:27;31.77;;;19.83;;
54983;SDS011;40884;53.562;9.940;2022-12-10T01:25:27;34.97;;;19.53;;
54983;SDS011;40884;53.562;9.940;2022-12-10T01:26:29;33.60;;;19.43;;
54983;SDS011;40884;53.562;9.940;2022-12-10T01:27:29;33.47;;;19.92;;
54983;SDS011;40884;53.562;9.940;2022-12-10T01:28:30;31.27;;;19.47;;
54983;SDS011;40884;53.562;9.940;2022-12-10T01:29:30;33.55;;;19.95;;
54983;SDS011;40884;53.562;9.940;2022-12-10T01:30:32;30.10;;;18.47;;
54983;SDS011;40884;53.562;9.940;2022-12-10T01:31:33;31.52;;;19.58;;
54983;SDS011;40884;53.562;9.940;2022-12-10T01:32:33;30.75;;;18.92;;
54983;SDS011;40884;53.562;9.940;2022-12-10T01:33:34;29.43;;;18.27;;
54983;SDS011;40884;53.562;9.940;2022-12-10T01:34:34;29.67;;;19.03;;
54983;SDS011;40884;53.562;9.940;2022-12-10T01:35:37;33.07;;;19.10;;
54983;SDS011;40884;53.562;9.940;2022-12-10T01:36:38;27.33;;;18.55;;
54983;SDS011;40884;53.562;9.940;2022-12-10T01:37:39;29.15;;;19.00;;
54983;SDS011;40884;53.562;9.940;2022-12-10T01:38:39;32.67;;;19.67;;
54983;SDS011;40884;53.562;9.940;2022-12-10T01:39:40;30.53;;;18.87;;
54983;SDS011;40884;53.562;9.940;2022-12-10T01:40:40;30.77;;;19.20;;
54983;SDS011;40884;53.562;9.940;2022-12-10T01:41:41;30.03;;;18.43;;
54983;SDS011;40884;53.562;9.940;2022-12-10T01:42:43;29.02;;;17.92;;
54983;SDS011;40884;53.562;9.940;2022-12-10T01:43:53;28.60;;;18.20;;
54983;SDS011;40884;53.562;9.940;2022-12-10T01:44:56;30.00;;;19.20;;
54983;SDS011;40884;53.562;9.940;2022-12-10T01:45:57;29.77;;;19.05;;
54983;SDS011;40884;53.562;9.940;2022-12-10T01:46:58;29.20;;;19.00;;
54983;SDS011;40884;53.562;9.940;2022-12-10T01:47:59;28.20;;;18.08;;
54983;SDS011;40884;53.562;9.940;2022-12-10T01:49:00;27.53;;;17.07;;
54983;SDS011;40884;53.562;9.940;2022-12-10T01:50:01;28.77;;;19.05;;
54983;SDS011;40884;53.562;9.940;2022-12-10T01:51:01;26.60;;;17.10;;
54983;SDS011;40884;53.562;9.940;2022-12-10T01:52:02;27.23;;;17.60;;
54983;SDS011;40884;53.562;9.940;2022-12-10T01:53:03;28.40;;;17.52;;
54983;SDS011;40884;53.562;9.940;2022-12-10T01:54:04;27.23;;;16.87;;
54983;SDS011;40884;53.562;9.940;2022-12-10T01:55:34;26.85;;;17.30;;
54983;SDS011;40884;53.562;9.940;2022-12-10T01:56:27;27.92;;;17.92;;
54983;SDS011;40884;53.562;9.940;2022-12-10T01:57:28;28.27;;;17.00;;
54983;SDS011;40884;53.562;9.940;2022-12-10T01:58:28;26.33;;;17.17;;
54983;SDS011;40884;53.562;9.940;2022-12-10T01:59:29;27.80;;;17.63;;
54983;SDS011;40884;53.562;9.940;2022-12-10T02:00:30;28.60;;;17.90;;
54983;SDS011;40884;53.562;9.940;2022-12-10T02:01:40;27.73;;;16.98;;
54983;SDS011;40884;53.562;9.940;2022-12-10T02:02:46;26.63;;;16.48;;
54983;SDS011;40884;53.562;9.940;2022-12-10T02:06:32;27.25;;;16.35;;
54983;SDS011;40884;53.562;9.940;2022-12-10T02:07:39;24.50;;;17.10;;
54983;SDS011;40884;53.562;9.940;2022-12-10T02:08:53;27.27;;;17.17;;
54983;SDS011;40884;53.562;9.940;2022-12-10T02:09:58;25.95;;;16.50;;
54983;SDS011;40884;53.562;9.940;2022-12-10T02:11:05;27.77;;;17.25;;
54983;SDS011;40884;53.562;9.940;2022-12-10T02:13:09;25.00;;;16.17;;
54983;SDS011;40884;53.562;9.940;2022-12-10T02:14:16;25.83;;;16.77;;
54983;SDS011;40884;53.562;9.940;2022-12-10T02:15:19;24.75;;;16.35;;
54983;SDS011;40884;53.562;9.940;2022-12-10T02:16:26;25.60;;;15.15;;
54983;SDS011;40884;53.562;9.940;2022-12-10T02:17:32;23.20;;;15.65;;
54983;SDS011;40884;53.562;9.940;2022-12-10T02:18:38;27.08;;;15.73;;
54983;SDS011;40884;53.562;9.940;2022-12-10T02:19:56;26.55;;;16.70;;
54983;SDS011;40884;53.562;9.940;2022-12-10T02:20:58;25.13;;;15.70;;
54983;SDS011;40884;53.562;9.940;2022-12-10T02:22:00;23.15;;;15.35;;
54983;SDS011;40884;53.562;9.940;2022-12-10T02:23:04;22.40;;;15.15;;
54983;SDS011;40884;53.562;9.940;2022-12-10T02:24:08;24.80;;;16.13;;
54983;SDS011;40884;53.562;9.940;2022-12-10T02:25:09;25.83;;;16.10;;
54983;SDS011;40884;53.562;9.940;2022-12-10T02:26:12;25.75;;;16.52;;
54983;SDS011;40884;53.562;9.940;2022-12-10T02:27:16;25.40;;;16.20;;
54983;SDS011;40884;53.562;9.940;2022-12-10T02:28:19;23.40;;;15.38;;
54983;SDS011;40884;53.562;9.940;2022-12-10T02:29:26;23.08;;;14.23;;
54983;SDS011;40884;53.562;9.940;2022-12-10T02:30:28;23.05;;;15.80;;
54983;SDS011;40884;53.562;9.940;2022-12-10T02:31:30;24.90;;;15.20;;
54983;SDS011;40884;53.562;9.940;2022-12-10T02:32:33;23.17;;;15.60;;
54983;SDS011;40884;53.562;9.940;2022-12-10T02:33:37;23.25;;;15.18;;
54983;SDS011;40884;53.562;9.940;2022-12-10T02:34:40;23.73;;;15.93;;
54983;SDS011;40884;53.562;9.940;2022-12-10T02:35:41;25.83;;;15.65;;
54983;SDS011;40884;53.562;9.940;2022-12-10T02:36:43;24.23;;;15.55;;
54983;SDS011;40884;53.562;9.940;2022-12-10T02:37:48;23.38;;;15.52;;
54983;SDS011;40884;53.562;9.940;2022-12-10T02:38:49;25.50;;;16.08;;
54983;SDS011;40884;53.562;9.940;2022-12-10T02:39:53;24.85;;;16.35;;
54983;SDS011;40884;53.562;9.940;2022-12-10T02:40:56;26.35;;;15.85;;
54983;SDS011;40884;53.562;9.940;2022-12-10T02:41:58;24.52;;;16.45;;
54983;SDS011;40884;53.562;9.940;2022-12-10T02:42:59;26.90;;;16.40;;
54983;SDS011;40884;53.562;9.940;2022-12-10T02:43:59;21.60;;;15.10;;
54983;SDS011;40884;53.562;9.940;2022-12-10T02:45:02;25.83;;;16.25;;
54983;SDS011;40884;53.562;9.940;2022-12-10T02:46:02;21.73;;;14.40;;
54983;SDS011;40884;53.562;9.940;2022-12-10T02:47:03;21.67;;;14.88;;
54983;SDS011;40884;53.562;9.940;2022-12-10T02:48:10;25.60;;;15.88;;
54983;SDS011;40884;53.562;9.940;2022-12-10T02:49:14;23.52;;;14.75;;
54983;SDS011;40884;53.562;9.940;2022-12-10T02:50:16;22.40;;;14.68;;
54983;SDS011;40884;53.562;9.940;2022-12-10T02:51:18;22.83;;;14.95;;
54983;SDS011;40884;53.562;9.940;2022-12-10T02:52:19;21.90;;;13.73;;
54983;SDS011;40884;53.562;9.940;2022-12-10T02:53:22;21.65;;;13.02;;
54983;SDS011;40884;53.562;9.940;2022-12-10T02:54:36;22.60;;;13.70;;
54983;SDS011;40884;53.562;9.940;2022-12-10T02:56:43;21.55;;;14.25;;
54983;SDS011;40884;53.562;9.940;2022-12-10T02:59:16;17.52;;;12.07;;
54983;SDS011;40884;53.562;9.940;2022-12-10T03:00:23;19.13;;;12.50;;
54983;SDS011;40884;53.562;9.940;2022-12-10T03:01:43;22.08;;;14.00;;
54983;SDS011;40884;53.562;9.940;2022-12-10T03:03:50;19.13;;;13.23;;
54983;SDS011;40884;53.562;9.940;2022-12-10T03:06:52;22.33;;;14.87;;
54983;SDS011;40884;53.562;9.940;2022-12-10T03:07:58;24.10;;;14.93;;
54983;SDS011;40884;53.562;9.940;2022-12-10T03:09:02;21.40;;;14.50;;
54983;SDS011;40884;53.562;9.940;2022-12-10T03:10:04;24.58;;;14.80;;
54983;SDS011;40884;53.562;9.940;2022-12-10T03:11:09;20.90;;;14.50;;
54983;SDS011;40884;53.562;9.940;2022-12-10T03:12:14;21.45;;;13.88;;
54983;SDS011;40884;53.562;9.940;2022-12-10T03:13:16;20.30;;;13.55;;
54983;SDS011;40884;53.562;9.940;2022-12-10T03:14:22;19.42;;;13.60;;
54983;SDS011;40884;53.562;9.940;2022-12-10T03:15:24;18.95;;;13.25;;
54983;SDS011;40884;53.562;9.940;2022-12-10T03:16:25;20.38;;;13.98;;
54983;SDS011;40884;53.562;9.940;2022-12-10T03:17:26;21.75;;;13.65;;
54983;SDS011;40884;53.562;9.940;2022-12-10T03:18:28;20.42;;;13.70;;
54983;SDS011;40884;53.562;9.940;2022-12-10T03:19:45;20.90;;;13.13;;
54983;SDS011;40884;53.562;9.940;2022-12-10T03:20:47;21.05;;;13.60;;
54983;SDS011;40884;53.562;9.940;2022-12-10T03:21:47;19.40;;;12.87;;
54983;SDS011;40884;53.562;9.940;2022-12-10T03:22:49;19.90;;;13.32;;
54983;SDS011;40884;53.562;9.940;2022-12-10T03:23:49;21.40;;;14.17;;
54983;SDS011;40884;53.562;9.940;2022-12-10T03:24:50;20.85;;;14.02;;
54983;SDS011;40884;53.562;9.940;2022-12-10T03:25:51;21.85;;;13.73;;
54983;SDS011;40884;53.562;9.940;2022-12-10T03:26:51;21.80;;;13.73;;
54983;SDS011;40884;53.562;9.940;2022-12-10T03:27:53;20.23;;;13.00;;
54983;SDS011;40884;53.562;9.940;2022-12-10T03:28:56;22.00;;;13.98;;
54983;SDS011;40884;53.562;9.940;2022-12-10T03:29:58;19.27;;;13.75;;
54983;SDS011;40884;53.562;9.940;2022-12-10T03:30:58;22.10;;;14.10;;
54983;SDS011;40884;53.562;9.940;2022-12-10T03:31:59;21.20;;;13.40;;
54983;SDS011;40884;53.562;9.940;2022-12-10T03:32:59;20.40;;;13.13;;
54983;SDS011;40884;53.562;9.940;2022-12-10T03:34:00;18.77;;;13.20;;
54983;SDS011;40884;53.562;9.940;2022-12-10T03:35:01;19.03;;;12.93;;
54983;SDS011;40884;53.562;9.940;2022-12-10T03:36:01;19.33;;;12.33;;
54983;SDS011;40884;53.562;9.940;2022-12-10T03:37:02;19.00;;;13.30;;
54983;SDS011;40884;53.562;9.940;2022-12-10T03:38:02;16.60;;;12.47;;
54983;SDS011;40884;53.562;9.940;2022-12-10T03:39:03;18.07;;;11.97;;
54983;SDS011;40884;53.562;9.940;2022-12-10T03:40:04;17.47;;;11.60;;
54983;SDS011;40884;53.562;9.940;2022-12-10T03:41:04;15.70;;;11.32;;
54983;SDS011;40884;53.562;9.940;2022-12-10T03:42:05;17.00;;;12.40;;
54983;SDS011;40884;53.562;9.940;2022-12-10T03:43:05;16.63;;;12.30;;
54983;SDS011;40884;53.562;9.940;2022-12-10T03:44:06;15.77;;;11.63;;
54983;SDS011;40884;53.562;9.940;2022-12-10T03:45:06;15.50;;;11.00;;
54983;SDS011;40884;53.562;9.940;2022-12-10T03:46:06;17.40;;;12.43;;
54983;SDS011;40884;53.562;9.940;2022-12-10T03:47:07;16.40;;;11.33;;
54983;SDS011;40884;53.562;9.940;2022-12-10T03:48:07;17.33;;;12.25;;
54983;SDS011;40884;53.562;9.940;2022-12-10T03:49:08;16.80;;;12.27;;
54983;SDS011;40884;53.562;9.940;2022-12-10T03:50:09;18.25;;;12.32;;
54983;SDS011;40884;53.562;9.940;2022-12-10T03:51:10;17.30;;;12.53;;
54983;SDS011;40884;53.562;9.940;2022-12-10T03:52:10;18.07;;;12.23;;
54983;SDS011;40884;53.562;9.940;2022-12-10T03:53:11;17.87;;;12.33;;
54983;SDS011;40884;53.562;9.940;2022-12-10T03:54:11;15.47;;;11.30;;
54983;SDS011;40884;53.562;9.940;2022-12-10T03:55:11;15.63;;;11.90;;
54983;SDS011;40884;53.562;9.940;2022-12-10T03:56:11;17.67;;;11.83;;
54983;SDS011;40884;53.562;9.940;2022-12-10T03:57:12;15.37;;;11.33;;
54983;SDS011;40884;53.562;9.940;2022-12-10T03:58:12;16.73;;;11.03;;
54983;SDS011;40884;53.562;9.940;2022-12-10T03:59:12;17.27;;;12.30;;
54983;SDS011;40884;53.562;9.940;2022-12-10T04:00:12;15.80;;;10.97;;
54983;SDS011;40884;53.562;9.940;2022-12-10T04:01:12;16.47;;;11.90;;
54983;SDS011;40884;53.562;9.940;2022-12-10T04:02:12;17.83;;;11.80;;
54983;SDS011;40884;53.562;9.940;2022-12-10T04:03:12;17.27;;;10.93;;
54983;SDS011;40884;53.562;9.940;2022-12-10T04:04:12;15.90;;;11.60;;
54983;SDS011;40884;53.562;9.940;2022-12-10T04:05:13;16.47;;;11.43;;
54983;SDS011;40884;53.562;9.940;2022-12-10T04:06:14;16.57;;;11.37;;
54983;SDS011;40884;53.562;9.940;2022-12-10T04:07:15;16.50;;;11.25;;
54983;SDS011;40884;53.562;9.940;2022-12-10T04:08:15;17.37;;;11.80;;
54983;SDS011;40884;53.562;9.940;2022-12-10T04:09:16;18.27;;;11.70;;
54983;SDS011;40884;53.562;9.940;2022-12-10T04:10:16;17.10;;;12.00;;
54983;SDS011;40884;53.562;9.940;2022-12-10T04:11:16;18.07;;;11.77;;
54983;SDS011;40884;53.562;9.940;2022-12-10T04:12:16;17.13;;;11.60;;
54983;SDS011;40884;53.562;9.940;2022-12-10T04:13:16;15.93;;;11.70;;
54983;SDS011;40884;53.562;9.940;2022-12-10T04:14:16;16.27;;;10.80;;
54983;SDS011;40884;53.562;9.940;2022-12-10T04:15:16;16.90;;;11.23;;
54983;SDS011;40884;53.562;9.940;2022-12-10T04:16:17;14.23;;;10.17;;
54983;SDS011;40884;53.562;9.940;2022-12-10T04:17:17;15.47;;;11.13;;
54983;SDS011;40884;53.562;9.940;2022-12-10T04:18:17;17.10;;;11.17;;
54983;SDS011;40884;53.562;9.940;2022-12-10T04:19:17;14.93;;;11.30;;
54983;SDS011;40884;53.562;9.940;2022-12-10T04:20:18;14.70;;;11.00;;
54983;SDS011;40884;53.562;9.940;2022-12-10T04:21:18;19.27;;;12.43;;
54983;SDS011;40884;53.562;9.940;2022-12-10T04:22:18;16.73;;;11.43;;
54983;SDS011;40884;53.562;9.940;2022-12-10T04:23:18;17.47;;;12.37;;
54983;SDS011;40884;53.562;9.940;2022-12-10T04:24:19;16.87;;;11.53;;
54983;SDS011;40884;53.562;9.940;2022-12-10T04:25:19;14.45;;;10.93;;
54983;SDS011;40884;53.562;9.940;2022-12-10T04:26:20;16.53;;;10.97;;
54983;SDS011;40884;53.562;9.940;2022-12-10T04:27:21;15.40;;;11.13;;
54983;SDS011;40884;53.562;9.940;2022-12-10T04:28:22;15.55;;;11.48;;
54983;SDS011;40884;53.562;9.940;2022-12-10T04:29:23;13.73;;;10.33;;
54983;SDS011;40884;53.562;9.940;2022-12-10T04:30:23;15.85;;;11.65;;
54983;SDS011;40884;53.562;9.940;2022-12-10T04:31:23;12.47;;;10.17;;
54983;SDS011;40884;53.562;9.940;2022-12-10T04:32:25;15.40;;;11.10;;
54983;SDS011;40884;53.562;9.940;2022-12-10T04:33:25;15.32;;;9.98;;
54983;SDS011;40884;53.562;9.940;2022-12-10T04:34:25;15.17;;;11.03;;
54983;SDS011;40884;53.562;9.940;2022-12-10T04:35:26;13.43;;;10.23;;
54983;SDS011;40884;53.562;9.940;2022-12-10T04:36:26;15.63;;;10.83;;
54983;SDS011;40884;53.562;9.940;2022-12-10T04:37:26;13.67;;;10.33;;
54983;SDS011;40884;53.562;9.940;2022-12-10T04:38:27;15.00;;;10.67;;
54983;SDS011;40884;53.562;9.940;2022-12-10T04:39:27;13.97;;;10.50;;
54983;SDS011;40884;53.562;9.940;2022-12-10T04:40:27;14.03;;;10.37;;
54983;SDS011;40884;53.562;9.940;2022-12-10T04:41:27;14.43;;;10.90;;
54983;SDS011;40884;53.562;9.940;2022-12-10T04:42:29;14.55;;;10.73;;
54983;SDS011;40884;53.562;9.940;2022-12-10T04:43:29;13.50;;;10.43;;
54983;SDS011;40884;53.562;9.940;2022-12-10T04:44:29;13.87;;;10.47;;
54983;SDS011;40884;53.562;9.940;2022-12-10T04:45:29;16.93;;;10.30;;
54983;SDS011;40884;53.562;9.940;2022-12-10T04:46:29;16.07;;;10.40;;
54983;SDS011;40884;53.562;9.940;2022-12-10T04:47:30;14.80;;;10.57;;
54983;SDS011;40884;53.562;9.940;2022-12-10T04:48:30;14.97;;;9.60;;
54983;SDS011;40884;53.562;9.940;2022-12-10T04:49:30;16.43;;;10.57;;
54983;SDS011;40884;53.562;9.940;2022-12-10T04:50:32;15.00;;;11.18;;
54983;SDS011;40884;53.562;9.940;2022-12-10T04:51:32;14.13;;;9.93;;
54983;SDS011;40884;53.562;9.940;2022-12-10T04:52:32;13.73;;;10.37;;
54983;SDS011;40884;53.562;9.940;2022-12-10T04:53:32;15.33;;;11.00;;
54983;SDS011;40884;53.562;9.940;2022-12-10T04:54:32;12.97;;;9.67;;
54983;SDS011;40884;53.562;9.940;2022-12-10T04:55:32;13.23;;;9.77;;
54983;SDS011;40884;53.562;9.940;2022-12-10T04:56:32;12.93;;;9.73;;
54983;SDS011;40884;53.562;9.940;2022-12-10T04:57:33;13.97;;;10.17;;
54983;SDS011;40884;53.562;9.940;2022-12-10T04:58:33;16.10;;;10.70;;
54983;SDS011;40884;53.562;9.940;2022-12-10T04:59:33;13.30;;;10.10;;
54983;SDS011;40884;53.562;9.940;2022-12-10T05:00:34;14.77;;;10.80;;
54983;SDS011;40884;53.562;9.940;2022-12-10T05:01:35;13.77;;;10.57;;
54983;SDS011;40884;53.562;9.940;2022-12-10T05:02:35;13.73;;;10.93;;
54983;SDS011;40884;53.562;9.940;2022-12-10T05:03:35;13.80;;;10.67;;
54983;SDS011;40884;53.562;9.940;2022-12-10T05:04:35;13.30;;;9.83;;
54983;SDS011;40884;53.562;9.940;2022-12-10T05:05:35;13.33;;;9.93;;
54983;SDS011;40884;53.562;9.940;2022-12-10T05:06:36;12.07;;;8.93;;
54983;SDS011;40884;53.562;9.940;2022-12-10T05:07:36;13.80;;;9.03;;
54983;SDS011;40884;53.562;9.940;2022-12-10T05:08:36;14.20;;;10.03;;
54983;SDS011;40884;53.562;9.940;2022-12-10T05:09:37;12.40;;;9.35;;
54983;SDS011;40884;53.562;9.940;2022-12-10T05:10:37;13.13;;;9.70;;
54983;SDS011;40884;53.562;9.940;2022-12-10T05:11:37;12.33;;;9.40;;
54983;SDS011;40884;53.562;9.940;2022-12-10T05:12:37;14.43;;;9.60;;
54983;SDS011;40884;53.562;9.940;2022-12-10T05:13:38;13.60;;;10.20;;
54983;SDS011;40884;53.562;9.940;2022-12-10T05:14:38;13.30;;;9.60;;
54983;SDS011;40884;53.562;9.940;2022-12-10T05:15:38;14.77;;;10.47;;
54983;SDS011;40884;53.562;9.940;2022-12-10T05:16:38;12.50;;;9.70;;
54983;SDS011;40884;53.562;9.940;2022-12-10T05:17:39;12.73;;;10.10;;
54983;SDS011;40884;53.562;9.940;2022-12-10T05:18:39;14.20;;;9.60;;
54983;SDS011;40884;53.562;9.940;2022-12-10T05:19:39;14.63;;;9.83;;
54983;SDS011;40884;53.562;9.940;2022-12-10T05:20:39;14.03;;;10.33;;
54983;SDS011;40884;53.562;9.940;2022-12-10T05:21:39;15.23;;;10.23;;
54983;SDS011;40884;53.562;9.940;2022-12-10T05:22:39;14.53;;;10.40;;
54983;SDS011;40884;53.562;9.940;2022-12-10T05:23:40;13.23;;;10.47;;
54983;SDS011;40884;53.562;9.940;2022-12-10T05:24:40;13.70;;;10.25;;
54983;SDS011;40884;53.562;9.940;2022-12-10T05:25:40;13.77;;;10.80;;
54983;SDS011;40884;53.562;9.940;2022-12-10T05:26:40;14.33;;;10.80;;
54983;SDS011;40884;53.562;9.940;2022-12-10T05:27:41;12.43;;;9.47;;
54983;SDS011;40884;53.562;9.940;2022-12-10T05:28:45;12.13;;;9.30;;
54983;SDS011;40884;53.562;9.940;2022-12-10T05:29:45;13.25;;;9.77;;
54983;SDS011;40884;53.562;9.940;2022-12-10T05:30:45;13.10;;;9.37;;
54983;SDS011;40884;53.562;9.940;2022-12-10T05:31:46;13.07;;;9.80;;
54983;SDS011;40884;53.562;9.940;2022-12-10T05:32:46;13.27;;;10.40;;
54983;SDS011;40884;53.562;9.940;2022-12-10T05:33:46;14.60;;;9.93;;
54983;SDS011;40884;53.562;9.940;2022-12-10T05:34:46;14.37;;;9.90;;
54983;SDS011;40884;53.562;9.940;2022-12-10T05:35:56;13.43;;;9.57;;
54983;SDS011;40884;53.562;9.940;2022-12-10T05:36:56;12.60;;;9.68;;
54983;SDS011;40884;53.562;9.940;2022-12-10T05:37:57;12.43;;;10.00;;
54983;SDS011;40884;53.562;9.940;2022-12-10T05:38:57;11.93;;;9.30;;
54983;SDS011;40884;53.562;9.940;2022-12-10T05:39:59;13.07;;;9.70;;
54983;SDS011;40884;53.562;9.940;2022-12-10T05:41:06;14.07;;;9.87;;
54983;SDS011;40884;53.562;9.940;2022-12-10T05:42:06;14.70;;;10.10;;
54983;SDS011;40884;53.562;9.940;2022-12-10T05:43:06;13.13;;;10.53;;
54983;SDS011;40884;53.562;9.940;2022-12-10T05:44:07;12.63;;;10.17;;
54983;SDS011;40884;53.562;9.940;2022-12-10T05:45:07;12.07;;;9.73;;
54983;SDS011;40884;53.562;9.940;2022-12-10T05:46:09;13.67;;;9.60;;
54983;SDS011;40884;53.562;9.940;2022-12-10T05:47:10;12.23;;;9.07;;
54983;SDS011;40884;53.562;9.940;2022-12-10T05:48:11;13.60;;;9.87;;
54983;SDS011;40884;53.562;9.940;2022-12-10T05:49:11;13.30;;;9.50;;
54983;SDS011;40884;53.562;9.940;2022-12-10T05:50:11;12.50;;;9.93;;
54983;SDS011;40884;53.562;9.940;2022-12-10T05:51:12;12.27;;;9.63;;
54983;SDS011;40884;53.562;9.940;2022-12-10T05:52:13;12.75;;;9.68;;
54983;SDS011;40884;53.562;9.940;2022-12-10T05:53:13;11.67;;;8.67;;
54983;SDS011;40884;53.562;9.940;2022-12-10T05:54:13;12.73;;;8.80;;
54983;SDS011;40884;53.562;9.940;2022-12-10T05:55:13;13.23;;;9.87;;
54983;SDS011;40884;53.562;9.940;2022-12-10T05:56:14;12.33;;;9.30;;
54983;SDS011;40884;53.562;9.940;2022-12-10T05:57:15;13.38;;;9.27;;
54983;SDS011;40884;53.562;9.940;2022-12-10T05:58:15;12.33;;;9.10;;
54983;SDS011;40884;53.562;9.940;2022-12-10T05:59:15;12.73;;;9.63;;
54983;SDS011;40884;53.562;9.940;2022-12-10T06:00:16;12.93;;;10.03;;
54983;SDS011;40884;53.562;9.940;2022-12-10T06:01:20;12.73;;;9.60;;
54983;SDS011;40884;53.562;9.940;2022-12-10T06:02:20;11.95;;;9.65;;
54983;SDS011;40884;53.562;9.940;2022-12-10T06:03:20;13.43;;;9.73;;
54983;SDS011;40884;53.562;9.940;2022-12-10T06:04:20;12.40;;;9.83;;
54983;SDS011;40884;53.562;9.940;2022-12-10T06:05:20;11.37;;;9.50;;
54983;SDS011;40884;53.562;9.940;2022-12-10T06:06:21;14.27;;;10.60;;
54983;SDS011;40884;53.562;9.940;2022-12-10T06:07:21;12.93;;;9.73;;
54983;SDS011;40884;53.562;9.940;2022-12-10T06:08:22;12.93;;;9.73;;
54983;SDS011;40884;53.562;9.940;2022-12-10T06:09:22;12.53;;;9.27;;